Time,TemperatureF,DewpointF,PressureIn,WindDirection,WindDirectionDegrees,WindSpeedMPH,WindSpeedGustMPH,Humidity,HourlyPrecipIn,Conditions,Clouds,dailyrainin,SolarRadiationWatts/m^2,SoftwareType,DateUTC
2013-08-26 00:03:00,79.0,69.0,-100.00,SSW,209,7.0,11.0,71,0.00,,,0.00,0.000000,,2013-08-26 05:03:00,
2013-08-26 00:44:00,79.0,66.0,-100.00,SW,218,7.0,13.0,64,0.00,,,0.00,0.000000,,2013-08-26 05:44:00,
2013-08-26 00:52:00,79.0,66.0,-100.00,SW,218,7.0,13.0,64,0.00,,,0.00,0.000000,,2013-08-26 05:52:00,
2013-08-26 01:02:00,79.0,66.0,-100.00,SW,218,7.0,13.0,64,0.00,,,0.00,0.000000,,2013-08-26 06:02:00,
2013-08-26 01:42:00,79.0,63.0,-100.00,SW,227,8.0,15.0,58,0.00,,,0.00,0.000000,,2013-08-26 06:42:00,
2013-08-26 01:52:00,79.0,63.0,-100.00,SW,227,8.0,15.0,58,0.00,,,0.00,0.000000,,2013-08-26 06:52:00,
2013-08-26 02:02:00,79.0,63.0,-100.00,SW,227,8.0,15.0,58,0.00,,,0.00,0.000000,,2013-08-26 07:02:00,
2013-08-26 02:42:00,78.0,64.0,-100.00,SW,229,8.0,15.0,62,0.00,,,0.00,0.000000,,2013-08-26 07:42:00,
2013-08-26 02:52:00,78.0,64.0,-100.00,SW,229,8.0,15.0,62,0.00,,,0.00,0.000000,,2013-08-26 07:52:00,
2013-08-26 03:02:00,78.0,64.0,-100.00,SW,229,8.0,15.0,62,0.00,,,0.00,0.000000,,2013-08-26 08:02:00,
2013-08-26 03:42:00,77.0,63.0,-100.00,SW,236,5.0,14.0,63,0.00,,,0.00,0.000000,,2013-08-26 08:42:00,
2013-08-26 03:52:00,77.0,63.0,-100.00,SW,236,5.0,14.0,63,0.00,,,0.00,0.000000,,2013-08-26 08:52:00,
2013-08-26 04:02:00,77.0,63.0,-100.00,SW,236,5.0,14.0,63,0.00,,,0.00,0.000000,,2013-08-26 09:02:00,
2013-08-26 04:43:00,75.0,65.0,-100.00,SW,229,3.0,9.0,72,0.00,,,0.00,0.000000,,2013-08-26 09:43:00,
2013-08-26 04:54:00,75.0,65.0,-100.00,SW,229,3.0,9.0,72,0.00,,,0.00,0.000000,,2013-08-26 09:54:00,
2013-08-26 05:03:00,75.0,65.0,-100.00,SW,229,3.0,9.0,72,0.00,,,0.00,0.000000,,2013-08-26 10:03:00,
2013-08-26 05:42:00,75.0,66.0,-100.00,SW,218,5.0,8.0,73,0.00,,,0.00,0.000000,,2013-08-26 10:42:00,
2013-08-26 05:52:00,75.0,66.0,-100.00,SW,218,5.0,8.0,73,0.00,,,0.00,0.000000,,2013-08-26 10:52:00,
2013-08-26 06:02:00,75.0,66.0,-100.00,SW,218,5.0,8.0,73,0.00,,,0.00,0.000000,,2013-08-26 11:02:00,
2013-08-26 06:42:00,75.0,66.0,-100.00,SW,224,3.0,7.0,73,0.00,,,0.00,0.000000,,2013-08-26 11:42:00,
2013-08-26 06:52:00,75.0,66.0,-100.00,SW,224,3.0,7.0,73,0.00,,,0.00,0.000000,,2013-08-26 11:52:00,
2013-08-26 07:01:00,75.0,66.0,-100.00,SW,224,3.0,7.0,73,0.00,,,0.00,0.000000,,2013-08-26 12:01:00,
2013-08-26 07:42:00,75.0,67.0,-100.00,SW,223,3.0,6.0,75,0.00,,,0.00,4.000000,,2013-08-26 12:42:00,
2013-08-26 07:52:00,75.0,67.0,-100.00,SW,223,3.0,6.0,75,0.00,,,0.00,4.000000,,2013-08-26 12:52:00,
2013-08-26 08:02:00,75.0,67.0,-100.00,SW,223,3.0,6.0,75,0.00,,,0.00,4.000000,,2013-08-26 13:02:00,
2013-08-26 08:42:00,76.0,65.0,-100.00,ENE,62,5.0,12.0,69,0.00,,,0.00,7.000000,,2013-08-26 13:42:00,
2013-08-26 08:52:00,76.0,65.0,-100.00,ENE,62,5.0,12.0,69,0.00,,,0.00,7.000000,,2013-08-26 13:52:00,
2013-08-26 09:02:00,76.0,65.0,-100.00,ENE,62,5.0,12.0,69,0.00,,,0.00,7.000000,,2013-08-26 14:02:00,
2013-08-26 09:42:00,75.0,65.0,-100.00,NNE,33,3.0,11.0,70,0.00,,,0.00,25.000000,,2013-08-26 14:42:00,
2013-08-26 09:52:00,75.0,65.0,-100.00,NNE,33,3.0,11.0,70,0.00,,,0.00,25.000000,,2013-08-26 14:52:00,
2013-08-26 10:01:00,75.0,65.0,-100.00,NNE,33,3.0,11.0,70,0.00,,,0.00,25.000000,,2013-08-26 15:01:00,
2013-08-26 10:05:00,75.0,67.0,-100.00,ESE,111,7.0,13.0,75,0.00,,,0.00,58.000000,,2013-08-26 15:05:00,
2013-08-26 10:59:00,75.0,67.0,-100.00,ESE,111,7.0,13.0,75,0.00,,,0.00,58.000000,,2013-08-26 15:59:00,
2013-08-26 11:05:00,81.0,67.0,-100.00,SSE,156,9.0,14.0,63,0.00,,,0.00,396.000000,,2013-08-26 16:05:00,
2013-08-26 11:48:00,81.0,67.0,-100.00,SSE,156,9.0,14.0,63,0.00,,,0.00,396.000000,,2013-08-26 16:48:00,
2013-08-26 11:59:00,81.0,67.0,-100.00,SSE,156,9.0,14.0,63,0.00,,,0.00,396.000000,,2013-08-26 16:59:00,
2013-08-26 12:43:00,87.0,66.0,-100.00,South,191,11.0,19.0,50,0.00,,,0.00,639.000000,,2013-08-26 17:43:00,
2013-08-26 12:53:00,87.0,66.0,-100.00,South,191,11.0,19.0,50,0.00,,,0.00,639.000000,,2013-08-26 17:53:00,
2013-08-26 13:01:00,87.0,66.0,-100.00,South,191,11.0,19.0,50,0.00,,,0.00,639.000000,,2013-08-26 18:01:00,
2013-08-26 13:42:00,90.0,66.0,-100.00,SSW,208,14.0,24.0,45,0.00,,,0.00,753.000000,,2013-08-26 18:42:00,
2013-08-26 13:52:00,90.0,66.0,-100.00,SSW,208,14.0,24.0,45,0.00,,,0.00,753.000000,,2013-08-26 18:52:00,
2013-08-26 14:01:00,90.0,66.0,-100.00,SSW,208,14.0,24.0,45,0.00,,,0.00,753.000000,,2013-08-26 19:01:00,
2013-08-26 14:42:00,92.0,66.0,-100.00,SW,227,13.0,21.0,42,0.00,,,0.00,762.000000,,2013-08-26 19:42:00,
2013-08-26 14:52:00,92.0,66.0,-100.00,SW,227,13.0,21.0,42,0.00,,,0.00,762.000000,,2013-08-26 19:52:00,
2013-08-26 15:02:00,92.0,66.0,-100.00,SW,227,13.0,21.0,42,0.00,,,0.00,762.000000,,2013-08-26 20:02:00,
2013-08-26 15:43:00,93.0,70.0,-100.00,SW,227,13.0,25.0,47,0.00,,,0.00,699.000000,,2013-08-26 20:43:00,
2013-08-26 15:52:00,93.0,70.0,-100.00,SW,227,13.0,25.0,47,0.00,,,0.00,699.000000,,2013-08-26 20:52:00,
2013-08-26 16:01:00,93.0,70.0,-100.00,SW,227,13.0,25.0,47,0.00,,,0.00,699.000000,,2013-08-26 21:01:00,
2013-08-26 16:05:00,93.0,70.0,-100.00,SW,229,12.0,24.0,48,0.00,,,0.00,587.000000,,2013-08-26 21:05:00,
2013-08-26 16:44:00,93.0,70.0,-100.00,SW,229,12.0,24.0,48,0.00,,,0.00,587.000000,,2013-08-26 21:44:00,
2013-08-26 16:55:00,93.0,70.0,-100.00,SW,229,12.0,24.0,48,0.00,,,0.00,587.000000,,2013-08-26 21:55:00,
2013-08-26 17:42:00,92.0,72.0,-100.00,SW,219,12.0,22.0,53,0.00,,,0.00,345.000000,,2013-08-26 22:42:00,
2013-08-26 17:53:00,92.0,72.0,-100.00,SW,219,12.0,22.0,53,0.00,,,0.00,345.000000,,2013-08-26 22:53:00,
2013-08-26 18:03:00,92.0,72.0,-100.00,SW,219,12.0,22.0,53,0.00,,,0.00,345.000000,,2013-08-26 23:03:00,
2013-08-26 18:42:00,91.0,73.0,-100.00,SW,218,11.0,20.0,56,0.00,,,0.00,224.000000,,2013-08-26 23:42:00,
2013-08-26 18:52:00,91.0,73.0,-100.00,SW,218,11.0,20.0,56,0.00,,,0.00,224.000000,,2013-08-26 23:52:00,
2013-08-26 19:01:00,91.0,73.0,-100.00,SW,218,11.0,20.0,56,0.00,,,0.00,224.000000,,2013-08-27 00:01:00,
2013-08-26 19:42:00,89.0,73.0,-100.00,SW,225,9.0,16.0,60,0.00,,,0.00,125.000000,,2013-08-27 00:42:00,
2013-08-26 19:52:00,89.0,73.0,-100.00,SW,225,9.0,16.0,60,0.00,,,0.00,125.000000,,2013-08-27 00:52:00,
2013-08-26 20:02:00,89.0,73.0,-100.00,SW,225,9.0,16.0,60,0.00,,,0.00,125.000000,,2013-08-27 01:02:00,
2013-08-26 20:42:00,86.0,73.0,-100.00,SW,229,7.0,18.0,66,0.00,,,-99.99,10.000000,,2013-08-27 01:42:00,
2013-08-26 20:52:00,86.0,73.0,-100.00,SW,229,7.0,18.0,66,0.00,,,-99.99,10.000000,,2013-08-27 01:52:00,
2013-08-26 21:02:00,86.0,73.0,-100.00,SW,229,7.0,18.0,66,0.00,,,-99.99,10.000000,,2013-08-27 02:02:00,
2013-08-26 21:43:00,85.0,75.0,-100.00,SW,228,7.0,13.0,71,0.00,,,0.00,0.000000,,2013-08-27 02:43:00,
2013-08-26 21:52:00,85.0,75.0,-100.00,SW,228,7.0,13.0,71,0.00,,,0.00,0.000000,,2013-08-27 02:52:00,
2013-08-26 22:02:00,85.0,75.0,-100.00,SW,228,7.0,13.0,71,0.00,,,0.00,0.000000,,2013-08-27 03:02:00,
2013-08-26 22:05:00,84.0,74.0,-100.00,SW,226,5.0,12.0,72,0.00,,,0.00,0.000000,,2013-08-27 03:05:00,
2013-08-26 22:45:00,84.0,74.0,-100.00,SW,226,5.0,12.0,72,0.00,,,0.00,0.000000,,2013-08-27 03:45:00,
2013-08-26 22:58:00,84.0,74.0,-100.00,SW,226,5.0,12.0,72,0.00,,,0.00,0.000000,,2013-08-27 03:58:00,
2013-08-26 23:05:00,82.0,74.0,-100.00,SSW,205,3.0,9.0,77,0.00,,,0.00,0.000000,,2013-08-27 04:05:00,
2013-08-26 23:47:00,82.0,74.0,-100.00,SSW,205,3.0,9.0,77,0.00,,,0.00,0.000000,,2013-08-27 04:47:00,
2013-08-26 23:54:00,82.0,74.0,-100.00,SSW,205,3.0,9.0,77,0.00,,,0.00,0.000000,,2013-08-27 04:54:00,